Time;durP1;ratioP1;P1;durP2;ratioP2;P2;SDS_P1;SDS_P2;PMS_P1;PMS_P2;Temp;Humidity;BMP_temperature;BMP_pressure;BME280_temperature;BME280_humidity;BME280_pressure;Samples;Min_cycle;Max_cycle;Signal;HPM_P1;HPM_P2
2022/07/28 00:01:22;;;;;;;3.30;1.35;;;;;;;;;;5115238;27;20051;-69
2022/07/28 00:03:48;;;;;;;6.13;1.50;;;;;;;;;;5112945;27;20079;-69
2022/07/28 00:06:14;;;;;;;5.78;1.50;;;;;;;;;;5107148;27;22120;-69
2022/07/28 00:08:41;;;;;;;3.75;1.40;;;;;;;;;;5099175;27;20059;-69
2022/07/28 00:11:07;;;;;;;4.00;1.35;;;;;;;;;;5113407;27;20083;-69
2022/07/28 00:13:35;;;;;;;9.13;1.80;;;;;;;;;;5112983;27;20060;-69
2022/07/28 00:16:02;;;;;;;2.30;1.15;;;;;;;;;;5112050;27;20085;-69
2022/07/28 00:18:28;;;;;;;2.53;1.08;;;;;;;;;;5100714;27;20047;-69
2022/07/28 00:20:55;;;;;;;2.40;1.40;;;;;;;;;;5112264;27;20548;-69
2022/07/28 00:23:21;;;;;;;2.08;1.40;;;;;;;;;;5110897;27;20162;-69
2022/07/28 00:26:04;;;;;;;3.53;1.30;;;;;;;;;;5109255;28;20054;-69
2022/07/28 00:28:30;;;;;;;2.50;1.27;;;;;;;;;;5097874;27;20080;-69
2022/07/28 00:30:57;;;;;;;4.72;1.30;;;;;;;;;;5111731;27;20050;-69
2022/07/28 00:33:31;;;;;;;4.35;1.38;;;;;;;;;;5105761;27;20086;-69
2022/07/28 00:35:58;;;;;;;4.75;1.40;;;;;;;;;;5098695;27;20056;-69
2022/07/28 00:38:24;;;;;;;5.63;1.40;;;;;;;;;;5109212;27;20086;-69
2022/07/28 00:43:43;;;;;;;4.43;1.83;;;;;;;;;;5109830;27;20052;-69
2022/07/28 00:46:09;;;;;;;3.55;1.38;;;;;;;;;;5095974;27;20107;-69
2022/07/28 00:48:37;;;;;;;2.67;1.33;;;;;;;;;;5098125;27;20110;-69
2022/07/28 00:51:04;;;;;;;2.88;1.38;;;;;;;;;;5110265;27;20121;-70
2022/07/28 00:53:30;;;;;;;1.83;1.33;;;;;;;;;;5110995;27;20059;-69
2022/07/28 00:55:57;;;;;;;2.15;1.52;;;;;;;;;;5108497;27;20052;-70
2022/07/28 00:58:31;;;;;;;1.38;1.27;;;;;;;;;;5112063;27;20068;-70
2022/07/28 01:00:58;;;;;;;2.97;1.20;;;;;;;;;;5110537;27;20052;-69
2022/07/28 01:03:24;;;;;;;3.42;1.33;;;;;;;;;;5111675;27;20047;-70
2022/07/28 01:05:50;;;;;;;2.83;1.35;;;;;;;;;;5102315;27;20163;-69
2022/07/28 01:08:35;;;;;;;4.43;1.40;;;;;;;;;;5107562;27;20052;-69
2022/07/28 01:11:07;;;;;;;4.50;1.40;;;;;;;;;;5103661;27;20079;-70
2022/07/28 01:13:53;;;;;;;4.63;1.38;;;;;;;;;;5116604;27;20055;-69
2022/07/28 01:16:19;;;;;;;2.75;1.40;;;;;;;;;;5109474;27;20075;-69
2022/07/28 01:18:55;;;;;;;4.07;1.38;;;;;;;;;;5108092;27;20054;-69
2022/07/28 01:21:25;;;;;;;3.22;1.15;;;;;;;;;;5111774;27;20056;-69
2022/07/28 01:23:54;;;;;;;3.38;1.30;;;;;;;;;;5108761;27;20078;-69
2022/07/28 01:26:40;;;;;;;2.85;1.30;;;;;;;;;;5105643;27;20047;-69
2022/07/28 01:29:13;;;;;;;2.27;1.50;;;;;;;;;;5109950;27;20088;-69
2022/07/28 01:31:41;;;;;;;2.83;1.50;;;;;;;;;;5096054;27;20283;-69
2022/07/28 01:34:10;;;;;;;2.70;1.60;;;;;;;;;;5099130;27;20060;-69
2022/07/28 01:36:40;;;;;;;6.72;1.55;;;;;;;;;;5121876;27;20047;-69
2022/07/28 01:39:06;;;;;;;3.95;1.40;;;;;;;;;;5106165;27;20052;-69
2022/07/28 01:41:34;;;;;;;2.85;1.50;;;;;;;;;;5093630;28;20056;-69
2022/07/28 01:44:04;;;;;;;4.53;1.50;;;;;;;;;;5112191;28;20063;-69
2022/07/28 01:46:31;;;;;;;1.50;1.35;;;;;;;;;;5105999;27;20060;-69
2022/07/28 01:48:58;;;;;;;4.50;1.90;;;;;;;;;;5091528;28;20159;-69
2022/07/28 01:51:26;;;;;;;3.35;1.67;;;;;;;;;;5091447;28;20067;-69
2022/07/28 01:53:54;;;;;;;5.13;1.25;;;;;;;;;;5090304;28;20044;-69
2022/07/28 01:56:21;;;;;;;4.18;1.85;;;;;;;;;;5092108;28;20052;-69
2022/07/28 01:58:49;;;;;;;3.45;1.63;;;;;;;;;;5107475;27;20060;-69
2022/07/28 02:01:16;;;;;;;3.65;1.80;;;;;;;;;;5104526;27;20053;-69
2022/07/28 02:03:44;;;;;;;3.45;1.50;;;;;;;;;;5107203;27;20056;-69
2022/07/28 02:06:11;;;;;;;3.10;1.80;;;;;;;;;;5091289;28;20416;-69
2022/07/28 02:08:38;;;;;;;6.78;1.63;;;;;;;;;;5109142;28;20143;-69
2022/07/28 02:13:50;;;;;;;2.95;1.40;;;;;;;;;;5101137;28;20155;-69
2022/07/28 02:16:19;;;;;;;3.80;1.48;;;;;;;;;;5101460;27;20057;-69
2022/07/28 02:18:46;;;;;;;3.13;1.50;;;;;;;;;;5091259;28;20139;-69
2022/07/28 02:21:13;;;;;;;2.55;1.67;;;;;;;;;;5102585;28;20056;-69
2022/07/28 02:23:42;;;;;;;6.57;1.88;;;;;;;;;;5097782;27;20510;-69
2022/07/28 02:26:09;;;;;;;5.35;1.90;;;;;;;;;;5098420;28;20048;-68
2022/07/28 02:28:37;;;;;;;5.93;1.80;;;;;;;;;;5101887;27;20062;-68
2022/07/28 02:31:11;;;;;;;4.88;1.90;;;;;;;;;;5108079;27;20052;-69
2022/07/28 02:33:40;;;;;;;3.55;1.55;;;;;;;;;;5103019;27;20083;-69
2022/07/28 02:36:27;;;;;;;3.33;1.50;;;;;;;;;;5110409;27;20059;-69
2022/07/28 02:38:55;;;;;;;3.70;1.58;;;;;;;;;;5100813;27;20055;-70
2022/07/28 02:41:24;;;;;;;4.20;1.70;;;;;;;;;;5111498;27;20076;-69
2022/07/28 02:43:53;;;;;;;5.07;2.50;;;;;;;;;;5110585;28;20067;-70
2022/07/28 02:46:24;;;;;;;3.65;1.85;;;;;;;;;;5101942;27;20052;-69
2022/07/28 02:48:53;;;;;;;4.30;1.75;;;;;;;;;;5107929;27;20887;-69
2022/07/28 02:51:22;;;;;;;4.78;2.00;;;;;;;;;;5107495;27;20076;-69
2022/07/28 02:53:49;;;;;;;4.07;1.70;;;;;;;;;;5107843;27;20132;-70
2022/07/28 02:56:17;;;;;;;4.63;1.85;;;;;;;;;;5099661;27;20083;-70
2022/07/28 02:58:43;;;;;;;3.38;2.00;;;;;;;;;;5109979;27;20147;-70
2022/07/28 03:01:10;;;;;;;4.88;2.17;;;;;;;;;;5104115;27;20426;-70
2022/07/28 03:03:36;;;;;;;3.03;1.42;;;;;;;;;;5110989;27;20414;-70
2022/07/28 03:06:09;;;;;;;9.48;1.80;;;;;;;;;;5109232;27;20044;-69
2022/07/28 03:08:35;;;;;;;2.70;2.45;;;;;;;;;;5109779;28;20052;-70
2022/07/28 03:11:06;;;;;;;3.30;2.25;;;;;;;;;;5109969;27;20058;-69
2022/07/28 03:13:32;;;;;;;5.18;2.03;;;;;;;;;;5109374;27;20136;-69
2022/07/28 03:15:58;;;;;;;3.90;1.60;;;;;;;;;;5104261;27;20056;-69
2022/07/28 03:18:27;;;;;;;4.45;1.92;;;;;;;;;;5099751;27;20056;-69
2022/07/28 03:20:54;;;;;;;3.75;2.13;;;;;;;;;;5093202;27;20053;-69
2022/07/28 03:23:23;;;;;;;3.30;1.90;;;;;;;;;;5104083;27;20499;-69
2022/07/28 03:25:50;;;;;;;2.85;2.00;;;;;;;;;;5112784;27;20068;-69
2022/07/28 03:28:19;;;;;;;5.47;1.80;;;;;;;;;;5111678;27;20067;-69
2022/07/28 03:31:02;;;;;;;7.18;3.13;;;;;;;;;;5111664;27;20062;-71
2022/07/28 03:33:29;;;;;;;10.70;2.25;;;;;;;;;;5103109;27;20458;-69
2022/07/28 03:36:01;;;;;;;4.03;1.95;;;;;;;;;;5106886;28;20535;-69
2022/07/28 03:38:30;;;;;;;7.65;2.00;;;;;;;;;;5114314;27;20056;-69
2022/07/28 03:40:57;;;;;;;7.20;2.20;;;;;;;;;;5113189;27;20074;-69
2022/07/28 03:43:24;;;;;;;3.83;1.70;;;;;;;;;;5113494;27;20052;-69
2022/07/28 03:45:51;;;;;;;7.03;2.63;;;;;;;;;;5111896;27;20052;-69
2022/07/28 03:48:17;;;;;;;4.97;1.77;;;;;;;;;;5112544;27;20056;-69
2022/07/28 03:50:44;;;;;;;6.35;1.90;;;;;;;;;;5113245;27;20056;-69
2022/07/28 03:53:19;;;;;;;5.53;2.38;;;;;;;;;;5112029;27;20055;-69
2022/07/28 03:55:49;;;;;;;2.67;1.90;;;;;;;;;;5105536;27;20088;-69
2022/07/28 03:58:16;;;;;;;2.88;1.50;;;;;;;;;;5110361;27;20129;-69
2022/07/28 04:00:43;;;;;;;5.15;1.65;;;;;;;;;;5115558;27;20044;-69
2022/07/28 04:03:09;;;;;;;3.45;1.88;;;;;;;;;;5110094;27;20082;-69
2022/07/28 04:05:56;;;;;;;6.50;2.42;;;;;;;;;;5105049;27;20063;-69
2022/07/28 04:08:24;;;;;;;8.82;2.50;;;;;;;;;;5111891;27;20160;-69
2022/07/28 04:10:52;;;;;;;4.35;1.80;;;;;;;;;;5099007;27;20055;-69
2022/07/28 04:13:19;;;;;;;9.43;2.30;;;;;;;;;;5103647;27;20054;-69
2022/07/28 04:15:45;;;;;;;3.17;1.70;;;;;;;;;;5112896;27;20454;-69
2022/07/28 04:18:11;;;;;;;5.43;2.42;;;;;;;;;;5113416;27;20150;-69
2022/07/28 04:20:38;;;;;;;6.68;2.17;;;;;;;;;;5110751;27;20052;-69
2022/07/28 04:23:04;;;;;;;6.28;2.03;;;;;;;;;;5106000;27;20113;-69
2022/07/28 04:25:30;;;;;;;4.15;1.70;;;;;;;;;;5114068;27;20068;-69
2022/07/28 04:27:58;;;;;;;3.05;1.80;;;;;;;;;;5109352;27;20052;-69
2022/07/28 04:30:24;;;;;;;4.82;2.08;;;;;;;;;;5106626;27;20052;-69
2022/07/28 04:32:52;;;;;;;4.05;2.22;;;;;;;;;;5099715;27;20051;-69
2022/07/28 04:35:18;;;;;;;6.60;2.90;;;;;;;;;;5111862;27;20059;-69
2022/07/28 04:37:47;;;;;;;6.05;2.00;;;;;;;;;;5111023;27;20063;-70
2022/07/28 04:40:13;;;;;;;5.47;2.30;;;;;;;;;;5125503;27;20502;-69
2022/07/28 04:42:40;;;;;;;4.70;2.10;;;;;;;;;;5111919;27;20052;-69
2022/07/28 04:45:07;;;;;;;5.95;2.35;;;;;;;;;;5111435;27;20176;-69
2022/07/28 04:47:34;;;;;;;5.25;1.90;;;;;;;;;;5102436;27;20106;-69
2022/07/28 04:50:00;;;;;;;9.15;2.45;;;;;;;;;;5105966;27;20937;-69
2022/07/28 04:52:27;;;;;;;6.28;2.25;;;;;;;;;;5107108;27;20065;-69
2022/07/28 04:54:53;;;;;;;3.00;1.83;;;;;;;;;;5103972;27;20055;-69
2022/07/28 04:57:19;;;;;;;4.40;1.98;;;;;;;;;;5105262;27;20199;-69
2022/07/28 04:59:47;;;;;;;5.45;2.05;;;;;;;;;;5107621;27;20056;-69
2022/07/28 05:02:15;;;;;;;4.95;2.05;;;;;;;;;;5107598;27;20052;-69
2022/07/28 05:04:42;;;;;;;4.45;1.98;;;;;;;;;;5107053;27;20052;-69
2022/07/28 05:07:08;;;;;;;4.20;1.52;;;;;;;;;;5104239;27;20048;-69
2022/07/28 05:09:38;;;;;;;11.48;2.38;;;;;;;;;;5105119;27;20054;-70
2022/07/28 05:12:05;;;;;;;5.03;1.95;;;;;;;;;;5098923;27;20143;-69
2022/07/28 05:14:31;;;;;;;4.82;1.73;;;;;;;;;;5112839;27;20570;-69
2022/07/28 05:16:58;;;;;;;4.47;2.65;;;;;;;;;;5107397;27;20058;-69
2022/07/28 05:19:24;;;;;;;5.15;2.33;;;;;;;;;;5110618;27;20044;-69
2022/07/28 05:21:51;;;;;;;4.88;2.10;;;;;;;;;;5108021;27;20470;-69
2022/07/28 05:24:19;;;;;;;2.03;1.70;;;;;;;;;;5110100;27;20135;-69
2022/07/28 05:26:45;;;;;;;6.60;2.30;;;;;;;;;;5110804;27;20054;-69
2022/07/28 05:29:11;;;;;;;5.72;1.98;;;;;;;;;;5103842;27;20052;-69
2022/07/28 05:31:38;;;;;;;4.40;1.85;;;;;;;;;;5109108;27;20062;-69
2022/07/28 05:34:07;;;;;;;5.00;1.60;;;;;;;;;;5102888;27;20053;-69
2022/07/28 05:36:34;;;;;;;6.45;2.80;;;;;;;;;;5110932;28;20052;-69
2022/07/28 05:39:01;;;;;;;3.58;1.92;;;;;;;;;;5101225;28;20579;-69
2022/07/28 05:41:27;;;;;;;3.67;1.77;;;;;;;;;;5104027;27;20506;-69
2022/07/28 05:43:53;;;;;;;7.18;2.28;;;;;;;;;;5104705;27;20052;-69
2022/07/28 05:46:20;;;;;;;4.53;2.15;;;;;;;;;;5099586;27;20044;-69
2022/07/28 05:48:47;;;;;;;6.80;2.15;;;;;;;;;;5109102;27;20052;-69
2022/07/28 05:51:15;;;;;;;7.70;2.13;;;;;;;;;;5098232;27;20585;-69
2022/07/28 05:53:42;;;;;;;5.15;1.80;;;;;;;;;;5106317;28;20055;-69
2022/07/28 05:56:08;;;;;;;4.20;2.15;;;;;;;;;;5103694;27;20051;-69
2022/07/28 05:58:35;;;;;;;7.18;2.50;;;;;;;;;;5101176;27;20593;-68
2022/07/28 06:01:01;;;;;;;4.15;2.53;;;;;;;;;;5103579;27;20054;-68
2022/07/28 06:03:30;;;;;;;4.43;2.33;;;;;;;;;;5109308;27;20056;-67
2022/07/28 06:05:57;;;;;;;5.70;2.13;;;;;;;;;;5106633;27;20080;-67
2022/07/28 06:08:40;;;;;;;3.53;1.50;;;;;;;;;;5110298;27;20415;-68
2022/07/28 06:11:08;;;;;;;5.50;1.80;;;;;;;;;;5114034;27;20044;-68
2022/07/28 06:13:35;;;;;;;6.15;2.15;;;;;;;;;;5110920;27;20530;-69
2022/07/28 06:16:05;;;;;;;6.10;2.45;;;;;;;;;;5108026;27;20101;-68
2022/07/28 06:18:38;;;;;;;9.38;1.90;;;;;;;;;;5111537;28;20064;-68
2022/07/28 06:21:04;;;;;;;5.03;1.60;;;;;;;;;;5111782;27;20048;-68
2022/07/28 06:23:31;;;;;;;3.20;1.45;;;;;;;;;;5109843;28;20055;-68
2022/07/28 06:25:57;;;;;;;3.75;1.70;;;;;;;;;;5102415;27;20051;-69
2022/07/28 06:28:23;;;;;;;3.85;1.58;;;;;;;;;;5103514;27;20059;-68
2022/07/28 06:30:50;;;;;;;5.47;1.60;;;;;;;;;;5093107;28;20141;-69
2022/07/28 06:33:17;;;;;;;2.58;1.40;;;;;;;;;;5107718;27;20565;-70
2022/07/28 06:35:44;;;;;;;5.05;1.70;;;;;;;;;;5095778;27;20134;-69
2022/07/28 06:38:16;;;;;;;4.70;1.40;;;;;;;;;;5102107;27;20144;-70
2022/07/28 06:40:43;;;;;;;4.97;1.33;;;;;;;;;;5110218;27;20529;-69
2022/07/28 06:43:09;;;;;;;6.63;2.00;;;;;;;;;;5108463;27;20058;-67
2022/07/28 06:45:35;;;;;;;3.42;1.77;;;;;;;;;;5108127;27;20483;-69
2022/07/28 06:48:02;;;;;;;2.33;1.35;;;;;;;;;;5104617;27;20048;-68
2022/07/28 06:50:28;;;;;;;1.45;1.35;;;;;;;;;;5105917;27;20487;-68
2022/07/28 06:52:56;;;;;;;3.00;1.40;;;;;;;;;;5108449;27;20106;-68
2022/07/28 06:55:24;;;;;;;3.63;1.52;;;;;;;;;;5093663;27;20520;-68
2022/07/28 06:57:59;;;;;;;;;;;;;;;;;;5104352;27;20063;-68
2022/07/28 07:00:26;;;;;;;5.40;1.60;;;;;;;;;;5100026;27;46744;-68
2022/07/28 07:02:52;;;;;;;2.15;1.20;;;;;;;;;;5110304;27;20052;-67
2022/07/28 07:05:18;;;;;;;4.57;1.30;;;;;;;;;;5106978;27;20052;-68
2022/07/28 07:07:45;;;;;;;2.65;1.10;;;;;;;;;;5114376;27;20051;-69
2022/07/28 07:10:11;;;;;;;2.35;1.15;;;;;;;;;;5119902;27;20391;-70
2022/07/28 07:12:38;;;;;;;3.05;1.20;;;;;;;;;;5121756;27;20403;-70
2022/07/28 07:15:07;;;;;;;2.38;1.05;;;;;;;;;;5105230;27;20109;-70
2022/07/28 07:17:36;;;;;;;5.47;1.60;;;;;;;;;;5114001;27;20056;-70
2022/07/28 07:20:03;;;;;;;3.42;1.15;;;;;;;;;;5113784;27;20125;-69
2022/07/28 07:22:29;;;;;;;2.70;0.90;;;;;;;;;;5107749;27;20052;-69
2022/07/28 07:24:56;;;;;;;5.30;1.45;;;;;;;;;;5104953;27;20057;-69
2022/07/28 07:27:24;;;;;;;4.18;1.25;;;;;;;;;;5104472;27;20101;-69
2022/07/28 07:29:50;;;;;;;2.38;1.40;;;;;;;;;;5095724;27;20136;-69
2022/07/28 07:32:16;;;;;;;2.95;1.27;;;;;;;;;;5108948;27;20114;-69
2022/07/28 07:34:43;;;;;;;2.80;1.20;;;;;;;;;;5113353;28;20128;-70
2022/07/28 07:37:12;;;;;;;3.75;1.20;;;;;;;;;;5108618;27;20091;-70
2022/07/28 07:39:40;;;;;;;4.03;1.10;;;;;;;;;;5102453;28;20105;-69
2022/07/28 07:42:06;;;;;;;4.45;1.25;;;;;;;;;;5102420;27;20052;-69
2022/07/28 07:44:33;;;;;;;2.25;1.25;;;;;;;;;;5112640;27;20081;-70
2022/07/28 07:46:59;;;;;;;2.05;1.23;;;;;;;;;;5110551;27;20135;-71
2022/07/28 07:49:25;;;;;;;3.70;1.33;;;;;;;;;;5110455;28;20063;-70
2022/07/28 07:52:10;;;;;;;6.07;1.20;;;;;;;;;;5111913;27;20083;-68
2022/07/28 07:54:36;;;;;;;2.17;0.90;;;;;;;;;;5111449;27;20102;-70
2022/07/28 07:57:02;;;;;;;2.83;1.00;;;;;;;;;;5128642;27;20052;-69
2022/07/28 07:59:29;;;;;;;2.17;1.13;;;;;;;;;;5111754;27;20064;-69
2022/07/28 08:01:56;;;;;;;4.15;1.52;;;;;;;;;;5113853;27;20135;-67
2022/07/28 08:04:23;;;;;;;1.98;0.90;;;;;;;;;;5114013;28;20052;-68
2022/07/28 08:06:51;;;;;;;2.70;0.90;;;;;;;;;;5113006;27;20168;-68
2022/07/28 08:09:17;;;;;;;3.47;1.17;;;;;;;;;;5114302;27;20058;-68
2022/07/28 08:11:44;;;;;;;2.85;1.10;;;;;;;;;;5113099;27;20139;-68
2022/07/28 08:14:10;;;;;;;6.22;1.33;;;;;;;;;;5128452;27;20055;-68
2022/07/28 08:16:37;;;;;;;1.35;0.82;;;;;;;;;;5111651;27;20058;-69
2022/07/28 08:19:04;;;;;;;2.60;1.15;;;;;;;;;;5098719;27;20525;-69
2022/07/28 08:21:31;;;;;;;15.27;1.23;;;;;;;;;;5100040;28;20491;-70
2022/07/28 08:23:57;;;;;;;3.47;0.85;;;;;;;;;;5111474;27;20055;-70
2022/07/28 08:26:24;;;;;;;3.60;0.80;;;;;;;;;;5102648;27;20048;-68
2022/07/28 08:28:50;;;;;;;1.98;0.90;;;;;;;;;;5112941;27;20056;-68
2022/07/28 08:31:20;;;;;;;2.53;0.90;;;;;;;;;;5111868;27;20474;-69
2022/07/28 08:33:47;;;;;;;2.25;0.85;;;;;;;;;;5107698;27;20114;-68
2022/07/28 08:36:20;;;;;;;3.05;0.98;;;;;;;;;;5111132;27;20138;-67
2022/07/28 08:38:46;;;;;;;1.25;0.82;;;;;;;;;;5112812;27;20172;-69
2022/07/28 08:41:16;;;;;;;3.15;0.90;;;;;;;;;;5101096;27;20090;-70
2022/07/28 08:43:43;;;;;;;3.78;1.20;;;;;;;;;;5112364;27;20135;-69
2022/07/28 08:46:10;;;;;;;3.95;0.95;;;;;;;;;;5106227;27;20044;-69
2022/07/28 08:48:38;;;;;;;3.17;0.90;;;;;;;;;;5103098;28;20056;-69
2022/07/28 08:51:10;;;;;;;3.45;1.15;;;;;;;;;;5112317;27;20113;-69
2022/07/28 08:53:38;;;;;;;2.05;1.10;;;;;;;;;;5125294;27;20052;-69
2022/07/28 08:56:05;;;;;;;1.20;0.70;;;;;;;;;;5111268;27;20048;-69
2022/07/28 08:58:32;;;;;;;5.05;0.98;;;;;;;;;;5101753;27;20056;-70
2022/07/28 09:00:59;;;;;;;1.13;0.68;;;;;;;;;;5105985;27;20052;-69
2022/07/28 09:03:26;;;;;;;1.02;0.90;;;;;;;;;;5110287;27;20496;-71
2022/07/28 09:05:53;;;;;;;2.90;1.30;;;;;;;;;;5112020;28;20080;-70
2022/07/28 09:08:20;;;;;;;1.45;0.77;;;;;;;;;;5097910;27;20056;-70
2022/07/28 09:10:46;;;;;;;2.33;0.90;;;;;;;;;;5111357;27;20509;-70
2022/07/28 09:13:13;;;;;;;6.32;1.92;;;;;;;;;;5108579;27;20450;-70
2022/07/28 09:15:40;;;;;;;1.30;0.80;;;;;;;;;;5105179;27;20052;-71
2022/07/28 09:18:06;;;;;;;2.00;0.75;;;;;;;;;;5103027;27;20049;-70
2022/07/28 09:20:35;;;;;;;2.70;1.13;;;;;;;;;;5097009;27;20063;-71
2022/07/28 09:23:02;;;;;;;1.70;0.65;;;;;;;;;;5090726;27;20054;-70
2022/07/28 09:25:30;;;;;;;3.95;1.00;;;;;;;;;;5106451;27;20050;-70
2022/07/28 09:28:09;;;;;;;1.52;0.90;;;;;;;;;;5109592;27;20076;-69
2022/07/28 09:30:45;;;;;;;4.00;0.98;;;;;;;;;;5117890;27;20052;-69
2022/07/28 09:33:21;;;;;;;0.98;0.95;;;;;;;;;;5106983;27;20083;-69
2022/07/28 09:36:12;;;;;;;1.10;0.70;;;;;;;;;;5104058;27;20052;-68
2022/07/28 09:38:39;;;;;;;1.75;0.95;;;;;;;;;;5110192;28;20044;-70
2022/07/28 09:41:06;;;;;;;2.63;0.80;;;;;;;;;;5108108;28;20583;-70
2022/07/28 09:43:35;;;;;;;1.23;0.90;;;;;;;;;;5107985;27;20135;-70
2022/07/28 09:46:02;;;;;;;2.20;0.82;;;;;;;;;;5101547;27;20554;-70
2022/07/28 09:48:29;;;;;;;1.30;0.80;;;;;;;;;;5109022;28;20091;-70
2022/07/28 09:51:09;;;;;;;2.05;1.00;;;;;;;;;;5109925;28;20052;-69
2022/07/28 09:53:36;;;;;;;4.78;1.00;;;;;;;;;;5109117;27;20159;-70
2022/07/28 09:56:04;;;;;;;3.63;0.82;;;;;;;;;;5108643;27;20048;-70
2022/07/28 09:58:30;;;;;;;1.15;0.80;;;;;;;;;;5109717;27;20174;-70
2022/07/28 10:01:04;;;;;;;2.17;1.02;;;;;;;;;;5110089;27;20063;-69
2022/07/28 10:03:32;;;;;;;2.03;0.90;;;;;;;;;;5110407;27;20151;-70
2022/07/28 10:06:03;;;;;;;1.45;1.02;;;;;;;;;;5102408;27;20045;-72
2022/07/28 10:08:44;;;;;;;3.60;0.98;;;;;;;;;;5119310;27;20484;-70
2022/07/28 10:11:11;;;;;;;1.20;0.70;;;;;;;;;;5108437;28;20060;-70
2022/07/28 10:13:52;;;;;;;4.75;0.90;;;;;;;;;;5108601;28;20125;-70
2022/07/28 10:16:19;;;;;;;2.78;1.23;;;;;;;;;;5110375;28;20059;-69
2022/07/28 10:18:46;;;;;;;1.33;0.90;;;;;;;;;;5105336;27;20083;-69
2022/07/28 10:21:14;;;;;;;3.08;1.00;;;;;;;;;;5107807;27;20574;-70
2022/07/28 10:23:45;;;;;;;3.58;1.02;;;;;;;;;;5109578;27;20052;-69
2022/07/28 10:26:15;;;;;;;1.98;0.70;;;;;;;;;;5110220;27;20052;-69
2022/07/28 10:28:50;;;;;;;1.90;0.80;;;;;;;;;;5108609;28;20048;-69
2022/07/28 10:31:46;;;;;;;5.18;0.98;;;;;;;;;;5112728;27;20054;-69
2022/07/28 10:34:32;;;;;;;1.08;0.73;;;;;;;;;;5107049;28;20060;-69
2022/07/28 10:37:01;;;;;;;2.53;0.98;;;;;;;;;;5102391;28;20487;-70
2022/07/28 10:39:30;;;;;;;1.60;0.90;;;;;;;;;;5108600;27;20048;-70
2022/07/28 10:41:57;;;;;;;1.25;0.85;;;;;;;;;;5110475;28;20040;-69
2022/07/28 10:44:23;;;;;;;1.75;0.73;;;;;;;;;;5110502;27;20109;-70
2022/07/28 10:46:51;;;;;;;2.35;0.80;;;;;;;;;;5110476;27;20052;-68
2022/07/28 10:49:18;;;;;;;3.13;1.02;;;;;;;;;;5111566;27;20059;-68
2022/07/28 10:51:46;;;;;;;2.88;0.90;;;;;;;;;;5107085;27;20102;-67
2022/07/28 10:54:35;;;;;;;2.05;0.80;;;;;;;;;;5109891;27;20506;-69
2022/07/28 10:57:06;;;;;;;4.85;1.02;;;;;;;;;;5111786;27;20094;-69
2022/07/28 10:59:58;;;;;;;2.55;0.90;;;;;;;;;;5109288;27;20269;-69
2022/07/28 11:02:44;;;;;;;1.05;0.77;;;;;;;;;;5110608;28;20052;-69
2022/07/28 11:05:23;;;;;;;3.78;1.20;;;;;;;;;;5113738;27;20060;-68
2022/07/28 11:07:50;;;;;;;2.25;0.90;;;;;;;;;;5112980;28;20139;-71
2022/07/28 11:10:17;;;;;;;2.42;0.82;;;;;;;;;;5113904;27;20059;-71
2022/07/28 11:12:44;;;;;;;1.98;0.82;;;;;;;;;;5110844;27;20135;-72
2022/07/28 11:15:29;;;;;;;2.45;0.90;;;;;;;;;;5109360;27;20058;-73
2022/07/28 11:18:05;;;;;;;3.72;1.10;;;;;;;;;;5112355;27;20075;-71
2022/07/28 11:20:52;;;;;;;0.88;0.70;;;;;;;;;;5111931;27;20052;-72
2022/07/28 11:23:36;;;;;;;2.88;0.75;;;;;;;;;;5108213;27;20048;-70
2022/07/28 11:26:24;;;;;;;2.28;1.00;;;;;;;;;;5107103;28;20127;-69
2022/07/28 11:28:53;;;;;;;1.77;1.13;;;;;;;;;;5102232;27;20058;-69
2022/07/28 11:31:39;;;;;;;1.38;0.88;;;;;;;;;;5109258;27;20089;-69
2022/07/28 11:34:07;;;;;;;1.92;0.90;;;;;;;;;;5111973;27;20048;-67
2022/07/28 11:36:52;;;;;;;1.48;0.80;;;;;;;;;;5112704;27;20051;-69
2022/07/28 11:39:22;;;;;;;2.83;1.13;;;;;;;;;;5110144;27;20074;-67
2022/07/28 11:41:49;;;;;;;1.42;0.88;;;;;;;;;;5110446;27;20414;-69
2022/07/28 11:44:23;;;;;;;2.40;0.75;;;;;;;;;;5106325;27;20083;-69
2022/07/28 11:46:49;;;;;;;1.73;1.00;;;;;;;;;;5113292;27;20127;-71
2022/07/28 11:49:22;;;;;;;1.85;1.15;;;;;;;;;;5105571;28;20537;-71
2022/07/28 11:52:08;;;;;;;3.50;1.02;;;;;;;;;;5109525;27;20048;-71
2022/07/28 11:54:36;;;;;;;1.23;1.02;;;;;;;;;;5110764;27;20056;-69
2022/07/28 11:57:04;;;;;;;2.35;0.80;;;;;;;;;;5112986;27;20040;-71
2022/07/28 11:59:40;;;;;;;2.67;1.23;;;;;;;;;;5108655;27;20135;-69
2022/07/28 12:02:07;;;;;;;1.55;0.93;;;;;;;;;;5100293;27;20056;-71
2022/07/28 12:04:35;;;;;;;1.70;0.80;;;;;;;;;;5110145;27;20545;-71
2022/07/28 12:07:02;;;;;;;1.33;1.00;;;;;;;;;;5112664;28;20056;-72
2022/07/28 12:09:31;;;;;;;1.85;0.90;;;;;;;;;;5114518;28;20517;-72
2022/07/28 12:12:07;;;;;;;0.98;0.70;;;;;;;;;;5095969;27;20052;-72
2022/07/28 12:14:39;;;;;;;2.63;0.90;;;;;;;;;;5102242;28;20052;-71
2022/07/28 12:17:05;;;;;;;4.40;1.08;;;;;;;;;;5110034;27;20048;-71
2022/07/28 12:19:32;;;;;;;2.10;0.98;;;;;;;;;;5112232;28;20541;-71
2022/07/28 12:21:58;;;;;;;2.40;1.00;;;;;;;;;;5111468;28;20055;-73
2022/07/28 12:24:29;;;;;;;2.90;0.80;;;;;;;;;;5108930;28;20048;-73
2022/07/28 12:26:59;;;;;;;2.83;2.33;;;;;;;;;;5108041;27;20183;-73
2022/07/28 12:29:30;;;;;;;4.47;1.30;;;;;;;;;;5107490;27;20057;-72
2022/07/28 12:32:03;;;;;;;2.92;1.17;;;;;;;;;;5107761;27;20053;-74
2022/07/28 12:34:31;;;;;;;2.63;0.82;;;;;;;;;;5110297;27;20071;-72
2022/07/28 12:37:00;;;;;;;4.45;1.38;;;;;;;;;;5110654;28;20050;-72
2022/07/28 12:39:28;;;;;;;3.08;1.00;;;;;;;;;;5111236;27;20052;-72
2022/07/28 12:42:02;;;;;;;1.30;0.85;;;;;;;;;;5109280;27;20191;-69
2022/07/28 12:44:34;;;;;;;2.28;1.30;;;;;;;;;;5105522;27;20142;-72
2022/07/28 12:47:00;;;;;;;2.97;1.10;;;;;;;;;;5108926;27;20542;-72
2022/07/28 12:49:27;;;;;;;2.08;0.70;;;;;;;;;;5109243;27;20138;-72
2022/07/28 12:51:53;;;;;;;2.65;0.90;;;;;;;;;;5109570;27;20050;-71
2022/07/28 12:54:32;;;;;;;4.05;0.88;;;;;;;;;;5109684;27;20058;-70
2022/07/28 12:56:59;;;;;;;1.88;0.93;;;;;;;;;;5110887;27;20170;-70
2022/07/28 12:59:30;;;;;;;1.90;0.90;;;;;;;;;;5108811;28;21176;-70
2022/07/28 13:01:57;;;;;;;1.65;0.70;;;;;;;;;;5105964;28;20414;-69
2022/07/28 13:04:40;;;;;;;1.38;0.70;;;;;;;;;;5110000;28;20044;-69
2022/07/28 13:07:08;;;;;;;1.13;0.63;;;;;;;;;;5105547;27;20052;-71
2022/07/28 13:09:36;;;;;;;3.22;0.90;;;;;;;;;;5111269;27;20574;-71
2022/07/28 13:12:12;;;;;;;1.77;0.77;;;;;;;;;;5110462;27;20087;-73
2022/07/28 13:14:39;;;;;;;5.78;1.02;;;;;;;;;;5109865;28;20058;-70
2022/07/28 13:17:05;;;;;;;6.68;1.08;;;;;;;;;;5108485;27;20672;-73
2022/07/28 13:19:32;;;;;;;1.85;1.00;;;;;;;;;;5109830;27;20046;-71
2022/07/28 13:21:59;;;;;;;3.20;1.00;;;;;;;;;;5110504;27;20048;-72
2022/07/28 13:24:32;;;;;;;1.92;0.80;;;;;;;;;;5107701;27;20113;-73
2022/07/28 13:27:00;;;;;;;2.10;0.90;;;;;;;;;;5108727;27;20586;-75
2022/07/28 13:29:26;;;;;;;5.90;1.15;;;;;;;;;;5108263;27;20052;-73
2022/07/28 13:31:55;;;;;;;2.25;0.90;;;;;;;;;;5111062;27;20052;-71
2022/07/28 13:34:22;;;;;;;2.08;0.85;;;;;;;;;;5110181;27;20422;-74
2022/07/28 13:36:48;;;;;;;1.40;0.77;;;;;;;;;;5108262;27;20167;-74
2022/07/28 13:39:15;;;;;;;0.77;0.60;;;;;;;;;;5109095;28;20167;-73
2022/07/28 13:41:41;;;;;;;2.28;0.90;;;;;;;;;;5111168;27;20179;-72
2022/07/28 13:44:26;;;;;;;2.30;0.88;;;;;;;;;;5107714;28;20053;-72
2022/07/28 13:46:52;;;;;;;2.15;1.10;;;;;;;;;;5108641;27;20055;-71
2022/07/28 13:49:21;;;;;;;2.13;1.20;;;;;;;;;;5107205;27;20056;-71
2022/07/28 13:51:48;;;;;;;3.45;1.45;;;;;;;;;;5108122;27;20050;-74
2022/07/28 13:54:22;;;;;;;1.42;0.80;;;;;;;;;;5106760;27;20055;-73
2022/07/28 13:56:51;;;;;;;3.10;1.00;;;;;;;;;;5110855;28;20056;-72
2022/07/28 13:59:17;;;;;;;2.92;1.00;;;;;;;;;;5108789;27;20056;-74
2022/07/28 14:01:43;;;;;;;1.58;0.80;;;;;;;;;;5109975;27;20173;-72
2022/07/28 14:04:16;;;;;;;1.75;0.80;;;;;;;;;;5106648;27;20506;-74
2022/07/28 14:06:46;;;;;;;3.42;0.90;;;;;;;;;;5110828;28;20052;-70
2022/07/28 14:09:12;;;;;;;4.90;1.38;;;;;;;;;;5111497;27;20525;-71
2022/07/28 14:11:46;;;;;;;3.25;0.85;;;;;;;;;;5110906;27;20052;-73
2022/07/28 14:14:20;;;;;;;1.75;1.05;;;;;;;;;;5100890;27;20060;-75
2022/07/28 14:16:50;;;;;;;1.83;1.15;;;;;;;;;;5108397;27;20068;-73
2022/07/28 14:19:17;;;;;;;2.90;0.95;;;;;;;;;;5104350;27;20048;-73
2022/07/28 14:22:04;;;;;;;2.92;0.95;;;;;;;;;;5108842;27;20052;-72
2022/07/28 14:24:38;;;;;;;4.50;1.37;;;;;;;;;;5132492;27;20052;-71
2022/07/28 14:27:05;;;;;;;1.52;0.88;;;;;;;;;;5116943;27;20166;-72
2022/07/28 14:29:31;;;;;;;2.30;0.90;;;;;;;;;;5102397;27;20570;-69
2022/07/28 14:31:58;;;;;;;5.43;1.20;;;;;;;;;;5110472;27;20048;-70
2022/07/28 14:34:24;;;;;;;3.95;0.88;;;;;;;;;;5110542;27;20082;-70
2022/07/28 14:36:55;;;;;;;1.23;0.80;;;;;;;;;;5097963;27;20057;-71
2022/07/28 14:39:21;;;;;;;2.92;1.02;;;;;;;;;;5115982;27;20052;-70
2022/07/28 14:41:49;;;;;;;1.85;0.70;;;;;;;;;;5127871;27;20573;-70
2022/07/28 14:44:16;;;;;;;1.85;0.82;;;;;;;;;;5111239;27;20056;-70
2022/07/28 14:46:49;;;;;;;2.37;1.10;;;;;;;;;;5100604;28;20573;-71
2022/07/28 14:49:16;;;;;;;1.88;0.90;;;;;;;;;;5099442;28;20500;-72
2022/07/28 14:51:43;;;;;;;1.85;0.90;;;;;;;;;;5105700;27;20601;-72
2022/07/28 14:54:10;;;;;;;1.90;0.82;;;;;;;;;;5092678;27;20064;-71
2022/07/28 14:56:37;;;;;;;3.03;1.08;;;;;;;;;;5108865;27;20059;-69
2022/07/28 14:59:04;;;;;;;3.25;0.82;;;;;;;;;;5106099;27;20109;-73
2022/07/28 15:01:30;;;;;;;2.90;1.10;;;;;;;;;;5106243;27;20059;-72